KVGT/VGT METAR and TAF weather

Enter ICAO airport designator
Station Type Date Time Source
KVGT METAR 2020/09/18 19:53 UTC NOAA

KVGT 181953Z 00000KT 10SM CLR 36/M02 A2991 RMK AO2 SLP115 T03611017


Station Type Date Time Source
KVGT Decoded METAR 2020/09/18 19:53 UTC NOAA

NORTH LAS VEGAS, NV, United States (KVGT) 36-12N 115-11W
Sep 18, 2020 - 03:53 PM EDT / 2020.09.18 1953 UTC
Wind: Calm:0
Visibility: 10 mile(s):0
Sky conditions: clear
Temperature: 97.0 F (36.1 C)
Dew Point: 28.9 F (-1.7 C)
Relative Humidity: 9%
Pressure (altimeter): 29.91 in. Hg (1012 hPa)
ob: KVGT 181953Z 00000KT 10SM CLR 36/M02 A2991 RMK AO2 SLP115 T03611017
cycle: 20

Station Type Date Time Source
KVGT TAF 2020/09/18 18:28 UTC NOAA

TAF KVGT 181726Z 1818/1918 VRB05KT P6SM BKN250
FM181900 19013G22KT P6SM SCT130 OVC250
FM190200 22011KT P6SM SCT130 SCT250
FM190600 22011KT P6SM FEW130
FM191700 21012G20KT P6SM SKC

Example: see airport list